sensor_id;sensor_type;location;lat;lon;timestamp;temperature;humidity
26081;DHT22;13991;51.174;4.438;2024-02-26T00:01:39;8.20;99.90
26081;DHT22;13991;51.174;4.438;2024-02-26T00:04:05;8.30;99.90
26081;DHT22;13991;51.174;4.438;2024-02-26T00:06:31;8.30;99.90
26081;DHT22;13991;51.174;4.438;2024-02-26T00:08:57;8.20;99.90
26081;DHT22;13991;51.174;4.438;2024-02-26T00:11:23;8.30;99.90
26081;DHT22;13991;51.174;4.438;2024-02-26T00:13:49;8.30;99.90
26081;DHT22;13991;51.174;4.438;2024-02-26T00:16:14;8.40;99.90
26081;DHT22;13991;51.174;4.438;2024-02-26T00:18:40;8.40;99.90
26081;DHT22;13991;51.174;4.438;2024-02-26T00:21:06;8.50;99.90
26081;DHT22;13991;51.174;4.438;2024-02-26T00:23:32;8.50;99.90
26081;DHT22;13991;51.174;4.438;2024-02-26T00:25:57;8.60;99.90
26081;DHT22;13991;51.174;4.438;2024-02-26T00:28:23;8.60;99.90
26081;DHT22;13991;51.174;4.438;2024-02-26T00:30:50;8.60;99.90
26081;DHT22;13991;51.174;4.438;2024-02-26T00:33:21;8.70;99.90
26081;DHT22;13991;51.174;4.438;2024-02-26T00:35:47;8.70;99.90
26081;DHT22;13991;51.174;4.438;2024-02-26T00:38:12;8.50;99.90
26081;DHT22;13991;51.174;4.438;2024-02-26T00:40:38;8.30;99.90
26081;DHT22;13991;51.174;4.438;2024-02-26T00:43:04;8.30;99.90
26081;DHT22;13991;51.174;4.438;2024-02-26T00:45:29;8.20;99.90
26081;DHT22;13991;51.174;4.438;2024-02-26T00:47:57;8.30;99.90
26081;DHT22;13991;51.174;4.438;2024-02-26T00:50:23;8.20;99.90
26081;DHT22;13991;51.174;4.438;2024-02-26T00:52:49;8.00;99.90
26081;DHT22;13991;51.174;4.438;2024-02-26T00:55:14;8.00;99.90
26081;DHT22;13991;51.174;4.438;2024-02-26T00:57:40;8.00;99.90
26081;DHT22;13991;51.174;4.438;2024-02-26T01:00:06;8.10;99.90
26081;DHT22;13991;51.174;4.438;2024-02-26T01:02:34;8.10;99.90
26081;DHT22;13991;51.174;4.438;2024-02-26T01:05:00;7.90;99.90
26081;DHT22;13991;51.174;4.438;2024-02-26T01:07:25;8.10;99.90
26081;DHT22;13991;51.174;4.438;2024-02-26T01:09:51;8.10;99.90
26081;DHT22;13991;51.174;4.438;2024-02-26T01:12:17;8.10;99.90
26081;DHT22;13991;51.174;4.438;2024-02-26T01:14:42;8.10;99.90
26081;DHT22;13991;51.174;4.438;2024-02-26T01:17:08;8.00;99.90
26081;DHT22;13991;51.174;4.438;2024-02-26T01:19:34;7.90;99.90
26081;DHT22;13991;51.174;4.438;2024-02-26T01:21:59;7.90;99.90
26081;DHT22;13991;51.174;4.438;2024-02-26T01:24:25;7.90;99.90
26081;DHT22;13991;51.174;4.438;2024-02-26T01:26:51;8.00;99.90
26081;DHT22;13991;51.174;4.438;2024-02-26T01:29:17;8.10;99.90
26081;DHT22;13991;51.174;4.438;2024-02-26T01:31:42;8.00;99.90
26081;DHT22;13991;51.174;4.438;2024-02-26T01:34:08;7.80;99.90
26081;DHT22;13991;51.174;4.438;2024-02-26T01:36:34;7.70;99.90
26081;DHT22;13991;51.174;4.438;2024-02-26T01:38:59;7.90;99.90
26081;DHT22;13991;51.174;4.438;2024-02-26T01:41:25;7.90;99.90
26081;DHT22;13991;51.174;4.438;2024-02-26T01:43:51;8.00;99.90
26081;DHT22;13991;51.174;4.438;2024-02-26T01:46:17;7.90;99.90
26081;DHT22;13991;51.174;4.438;2024-02-26T01:48:44;7.80;99.90
26081;DHT22;13991;51.174;4.438;2024-02-26T01:51:13;7.80;99.90
26081;DHT22;13991;51.174;4.438;2024-02-26T01:53:40;7.60;99.90
26081;DHT22;13991;51.174;4.438;2024-02-26T01:56:06;7.70;99.90
26081;DHT22;13991;51.174;4.438;2024-02-26T01:58:32;7.80;99.90
26081;DHT22;13991;51.174;4.438;2024-02-26T02:01:00;7.80;99.90
26081;DHT22;13991;51.174;4.438;2024-02-26T02:03:26;7.80;99.90
26081;DHT22;13991;51.174;4.438;2024-02-26T02:05:52;7.70;99.90
26081;DHT22;13991;51.174;4.438;2024-02-26T02:08:18;7.80;99.90
26081;DHT22;13991;51.174;4.438;2024-02-26T02:10:44;7.60;99.90
26081;DHT22;13991;51.174;4.438;2024-02-26T02:13:13;7.70;99.90
26081;DHT22;13991;51.174;4.438;2024-02-26T02:15:39;7.70;99.90
26081;DHT22;13991;51.174;4.438;2024-02-26T02:18:05;7.60;99.90
26081;DHT22;13991;51.174;4.438;2024-02-26T02:20:34;7.60;99.90
26081;DHT22;13991;51.174;4.438;2024-02-26T02:23:00;7.60;99.90
26081;DHT22;13991;51.174;4.438;2024-02-26T02:25:26;7.60;99.90
26081;DHT22;13991;51.174;4.438;2024-02-26T02:27:53;7.60;99.90
26081;DHT22;13991;51.174;4.438;2024-02-26T02:30:20;7.70;99.90
26081;DHT22;13991;51.174;4.438;2024-02-26T02:32:46;7.60;99.90
26081;DHT22;13991;51.174;4.438;2024-02-26T02:35:12;7.60;99.90
26081;DHT22;13991;51.174;4.438;2024-02-26T02:37:38;7.70;99.90
26081;DHT22;13991;51.174;4.438;2024-02-26T02:40:04;7.80;99.90
26081;DHT22;13991;51.174;4.438;2024-02-26T02:42:30;7.80;99.90
26081;DHT22;13991;51.174;4.438;2024-02-26T02:44:56;7.70;99.90
26081;DHT22;13991;51.174;4.438;2024-02-26T02:47:22;7.50;99.90
26081;DHT22;13991;51.174;4.438;2024-02-26T02:49:48;7.40;99.90
26081;DHT22;13991;51.174;4.438;2024-02-26T02:52:13;7.30;99.90
26081;DHT22;13991;51.174;4.438;2024-02-26T02:54:44;7.40;99.90
26081;DHT22;13991;51.174;4.438;2024-02-26T02:57:12;7.40;99.90
26081;DHT22;13991;51.174;4.438;2024-02-26T02:59:39;7.40;99.90
26081;DHT22;13991;51.174;4.438;2024-02-26T03:02:06;7.40;99.90
26081;DHT22;13991;51.174;4.438;2024-02-26T03:04:32;7.50;99.90
26081;DHT22;13991;51.174;4.438;2024-02-26T03:06:58;7.40;99.90
26081;DHT22;13991;51.174;4.438;2024-02-26T03:09:24;7.50;99.90
26081;DHT22;13991;51.174;4.438;2024-02-26T03:11:49;7.30;99.90
26081;DHT22;13991;51.174;4.438;2024-02-26T03:14:15;7.20;99.90
26081;DHT22;13991;51.174;4.438;2024-02-26T03:16:41;7.10;99.90
26081;DHT22;13991;51.174;4.438;2024-02-26T03:19:07;7.10;99.90
26081;DHT22;13991;51.174;4.438;2024-02-26T03:21:33;7.20;99.90
26081;DHT22;13991;51.174;4.438;2024-02-26T03:23:59;7.20;99.90
26081;DHT22;13991;51.174;4.438;2024-02-26T03:26:24;7.20;99.90
26081;DHT22;13991;51.174;4.438;2024-02-26T03:28:50;7.20;99.90
26081;DHT22;13991;51.174;4.438;2024-02-26T03:31:16;7.20;99.90
26081;DHT22;13991;51.174;4.438;2024-02-26T03:33:41;7.20;99.90
26081;DHT22;13991;51.174;4.438;2024-02-26T03:36:07;7.20;99.90
26081;DHT22;13991;51.174;4.438;2024-02-26T03:38:33;7.20;99.90
26081;DHT22;13991;51.174;4.438;2024-02-26T03:40:59;7.20;99.90
26081;DHT22;13991;51.174;4.438;2024-02-26T03:43:24;7.20;99.90
26081;DHT22;13991;51.174;4.438;2024-02-26T03:45:50;7.30;99.90
26081;DHT22;13991;51.174;4.438;2024-02-26T03:48:16;7.30;99.90
26081;DHT22;13991;51.174;4.438;2024-02-26T03:50:41;7.30;99.90
26081;DHT22;13991;51.174;4.438;2024-02-26T03:53:07;7.40;99.90
26081;DHT22;13991;51.174;4.438;2024-02-26T03:55:34;7.40;99.90
26081;DHT22;13991;51.174;4.438;2024-02-26T03:58:00;7.40;99.90
26081;DHT22;13991;51.174;4.438;2024-02-26T04:00:26;7.30;99.90
26081;DHT22;13991;51.174;4.438;2024-02-26T04:02:54;7.30;99.90
26081;DHT22;13991;51.174;4.438;2024-02-26T04:05:20;7.30;99.90
26081;DHT22;13991;51.174;4.438;2024-02-26T04:07:45;7.30;99.90
26081;DHT22;13991;51.174;4.438;2024-02-26T04:10:12;7.30;99.90
26081;DHT22;13991;51.174;4.438;2024-02-26T04:12:39;7.40;99.90
26081;DHT22;13991;51.174;4.438;2024-02-26T04:15:10;7.30;99.90
26081;DHT22;13991;51.174;4.438;2024-02-26T04:17:37;7.20;99.90
26081;DHT22;13991;51.174;4.438;2024-02-26T04:20:05;7.20;99.90
26081;DHT22;13991;51.174;4.438;2024-02-26T04:22:32;7.20;99.90
26081;DHT22;13991;51.174;4.438;2024-02-26T04:24:58;7.40;99.90
26081;DHT22;13991;51.174;4.438;2024-02-26T04:27:24;7.40;99.90
26081;DHT22;13991;51.174;4.438;2024-02-26T04:29:53;7.30;99.90
26081;DHT22;13991;51.174;4.438;2024-02-26T04:32:19;7.30;99.90
26081;DHT22;13991;51.174;4.438;2024-02-26T04:34:44;7.40;99.90
26081;DHT22;13991;51.174;4.438;2024-02-26T04:37:10;7.40;99.90
26081;DHT22;13991;51.174;4.438;2024-02-26T04:39:35;7.40;99.90
26081;DHT22;13991;51.174;4.438;2024-02-26T04:42:01;7.30;99.90
26081;DHT22;13991;51.174;4.438;2024-02-26T04:44:29;7.20;99.90
26081;DHT22;13991;51.174;4.438;2024-02-26T04:46:55;7.30;99.90
26081;DHT22;13991;51.174;4.438;2024-02-26T04:49:21;7.30;99.90
26081;DHT22;13991;51.174;4.438;2024-02-26T04:51:47;7.30;99.90
26081;DHT22;13991;51.174;4.438;2024-02-26T04:54:13;7.30;99.90
26081;DHT22;13991;51.174;4.438;2024-02-26T04:56:39;7.30;99.90
26081;DHT22;13991;51.174;4.438;2024-02-26T04:59:05;7.30;99.90
26081;DHT22;13991;51.174;4.438;2024-02-26T05:01:34;7.30;99.90
26081;DHT22;13991;51.174;4.438;2024-02-26T05:03:59;7.30;99.90
26081;DHT22;13991;51.174;4.438;2024-02-26T05:06:25;7.20;99.90
26081;DHT22;13991;51.174;4.438;2024-02-26T05:08:51;7.10;99.90
26081;DHT22;13991;51.174;4.438;2024-02-26T05:11:16;7.10;99.90
26081;DHT22;13991;51.174;4.438;2024-02-26T05:13:43;7.20;99.90
26081;DHT22;13991;51.174;4.438;2024-02-26T05:16:10;7.20;99.90
26081;DHT22;13991;51.174;4.438;2024-02-26T05:18:36;7.00;99.90
26081;DHT22;13991;51.174;4.438;2024-02-26T05:21:02;7.10;99.90
26081;DHT22;13991;51.174;4.438;2024-02-26T05:23:29;7.10;99.90
26081;DHT22;13991;51.174;4.438;2024-02-26T05:25:54;7.00;99.90
26081;DHT22;13991;51.174;4.438;2024-02-26T05:28:21;7.10;99.90
26081;DHT22;13991;51.174;4.438;2024-02-26T05:30:46;7.20;99.90
26081;DHT22;13991;51.174;4.438;2024-02-26T05:33:12;7.20;99.90
26081;DHT22;13991;51.174;4.438;2024-02-26T05:35:38;7.20;99.90
26081;DHT22;13991;51.174;4.438;2024-02-26T05:38:05;7.20;99.90
26081;DHT22;13991;51.174;4.438;2024-02-26T05:40:31;7.10;99.90
26081;DHT22;13991;51.174;4.438;2024-02-26T05:42:57;7.00;99.90
26081;DHT22;13991;51.174;4.438;2024-02-26T05:45:22;7.00;99.90
26081;DHT22;13991;51.174;4.438;2024-02-26T05:47:48;7.00;99.90
26081;DHT22;13991;51.174;4.438;2024-02-26T05:50:15;7.00;99.90
26081;DHT22;13991;51.174;4.438;2024-02-26T05:52:42;7.10;99.90
26081;DHT22;13991;51.174;4.438;2024-02-26T05:55:08;7.10;99.90
26081;DHT22;13991;51.174;4.438;2024-02-26T05:57:34;7.00;99.90
26081;DHT22;13991;51.174;4.438;2024-02-26T06:00:00;7.00;99.90
26081;DHT22;13991;51.174;4.438;2024-02-26T06:02:32;7.00;99.90
26081;DHT22;13991;51.174;4.438;2024-02-26T06:04:58;7.00;99.90
26081;DHT22;13991;51.174;4.438;2024-02-26T06:07:24;7.00;99.90
26081;DHT22;13991;51.174;4.438;2024-02-26T06:09:51;7.00;99.90
26081;DHT22;13991;51.174;4.438;2024-02-26T06:12:16;6.90;99.90
26081;DHT22;13991;51.174;4.438;2024-02-26T06:14:42;7.10;99.90
26081;DHT22;13991;51.174;4.438;2024-02-26T06:17:08;7.10;99.90
26081;DHT22;13991;51.174;4.438;2024-02-26T06:19:34;7.00;99.90
26081;DHT22;13991;51.174;4.438;2024-02-26T06:22:00;7.00;99.90
26081;DHT22;13991;51.174;4.438;2024-02-26T06:24:25;6.90;99.90
26081;DHT22;13991;51.174;4.438;2024-02-26T06:26:51;6.90;99.90
26081;DHT22;13991;51.174;4.438;2024-02-26T06:29:17;6.80;99.90
26081;DHT22;13991;51.174;4.438;2024-02-26T06:31:42;6.70;99.90
26081;DHT22;13991;51.174;4.438;2024-02-26T06:34:08;6.70;99.90
26081;DHT22;13991;51.174;4.438;2024-02-26T06:36:34;6.70;99.90
26081;DHT22;13991;51.174;4.438;2024-02-26T06:39:00;6.80;99.90
26081;DHT22;13991;51.174;4.438;2024-02-26T06:41:26;6.90;99.90
26081;DHT22;13991;51.174;4.438;2024-02-26T06:43:56;6.80;99.90
26081;DHT22;13991;51.174;4.438;2024-02-26T06:46:25;6.80;99.90
26081;DHT22;13991;51.174;4.438;2024-02-26T06:48:51;6.70;99.90
26081;DHT22;13991;51.174;4.438;2024-02-26T06:51:17;6.70;99.90
26081;DHT22;13991;51.174;4.438;2024-02-26T06:53:43;6.70;99.90
26081;DHT22;13991;51.174;4.438;2024-02-26T06:56:08;6.80;99.90
26081;DHT22;13991;51.174;4.438;2024-02-26T06:58:43;6.90;99.90
26081;DHT22;13991;51.174;4.438;2024-02-26T07:01:11;6.90;99.90
26081;DHT22;13991;51.174;4.438;2024-02-26T07:03:37;6.90;99.90
26081;DHT22;13991;51.174;4.438;2024-02-26T07:06:03;6.90;99.90
26081;DHT22;13991;51.174;4.438;2024-02-26T07:08:29;6.90;99.90
26081;DHT22;13991;51.174;4.438;2024-02-26T07:10:55;6.80;99.90
26081;DHT22;13991;51.174;4.438;2024-02-26T07:13:20;6.70;99.90
26081;DHT22;13991;51.174;4.438;2024-02-26T07:15:46;6.60;99.90
26081;DHT22;13991;51.174;4.438;2024-02-26T07:18:12;6.70;99.90
26081;DHT22;13991;51.174;4.438;2024-02-26T07:20:37;6.60;99.90
26081;DHT22;13991;51.174;4.438;2024-02-26T07:23:03;6.60;99.90
26081;DHT22;13991;51.174;4.438;2024-02-26T07:25:29;6.70;99.90
26081;DHT22;13991;51.174;4.438;2024-02-26T07:27:54;6.60;99.90
26081;DHT22;13991;51.174;4.438;2024-02-26T07:30:20;6.80;99.90
26081;DHT22;13991;51.174;4.438;2024-02-26T07:32:46;6.80;99.90
26081;DHT22;13991;51.174;4.438;2024-02-26T07:35:11;6.90;99.90
26081;DHT22;13991;51.174;4.438;2024-02-26T07:37:37;6.70;99.90
26081;DHT22;13991;51.174;4.438;2024-02-26T07:40:04;6.70;99.90
26081;DHT22;13991;51.174;4.438;2024-02-26T07:42:31;6.80;99.90
26081;DHT22;13991;51.174;4.438;2024-02-26T07:44:56;6.90;99.90
26081;DHT22;13991;51.174;4.438;2024-02-26T07:47:22;7.00;99.90
26081;DHT22;13991;51.174;4.438;2024-02-26T07:49:48;6.90;99.90
26081;DHT22;13991;51.174;4.438;2024-02-26T07:52:14;6.80;99.90
26081;DHT22;13991;51.174;4.438;2024-02-26T07:54:40;6.90;99.90
26081;DHT22;13991;51.174;4.438;2024-02-26T07:57:05;6.90;99.90
26081;DHT22;13991;51.174;4.438;2024-02-26T07:59:32;6.90;99.90
26081;DHT22;13991;51.174;4.438;2024-02-26T08:01:57;6.90;99.90
26081;DHT22;13991;51.174;4.438;2024-02-26T08:04:23;6.90;99.90
26081;DHT22;13991;51.174;4.438;2024-02-26T08:06:49;6.90;99.90
26081;DHT22;13991;51.174;4.438;2024-02-26T08:09:14;7.00;99.90
26081;DHT22;13991;51.174;4.438;2024-02-26T08:11:40;6.90;99.90
26081;DHT22;13991;51.174;4.438;2024-02-26T08:14:06;7.00;99.90
26081;DHT22;13991;51.174;4.438;2024-02-26T08:16:31;6.90;99.90
26081;DHT22;13991;51.174;4.438;2024-02-26T08:18:57;6.90;99.90
26081;DHT22;13991;51.174;4.438;2024-02-26T08:21:23;6.90;99.90
26081;DHT22;13991;51.174;4.438;2024-02-26T08:23:48;6.80;99.90
26081;DHT22;13991;51.174;4.438;2024-02-26T08:26:14;6.80;99.90
26081;DHT22;13991;51.174;4.438;2024-02-26T08:28:40;6.70;99.90
26081;DHT22;13991;51.174;4.438;2024-02-26T08:31:05;6.90;99.90
26081;DHT22;13991;51.174;4.438;2024-02-26T08:33:32;7.00;99.90
26081;DHT22;13991;51.174;4.438;2024-02-26T08:36:04;7.00;99.90
26081;DHT22;13991;51.174;4.438;2024-02-26T08:38:30;7.00;99.90
26081;DHT22;13991;51.174;4.438;2024-02-26T08:40:56;7.10;99.90
26081;DHT22;13991;51.174;4.438;2024-02-26T08:43:21;7.10;99.90
26081;DHT22;13991;51.174;4.438;2024-02-26T08:45:47;6.90;99.90
26081;DHT22;13991;51.174;4.438;2024-02-26T08:48:12;7.00;99.90
26081;DHT22;13991;51.174;4.438;2024-02-26T08:50:38;6.90;99.90
26081;DHT22;13991;51.174;4.438;2024-02-26T08:53:04;6.90;99.90
26081;DHT22;13991;51.174;4.438;2024-02-26T08:55:31;7.00;99.90
26081;DHT22;13991;51.174;4.438;2024-02-26T08:57:56;7.00;99.90
26081;DHT22;13991;51.174;4.438;2024-02-26T09:00:22;7.00;99.90
26081;DHT22;13991;51.174;4.438;2024-02-26T09:02:48;6.90;99.90
26081;DHT22;13991;51.174;4.438;2024-02-26T09:05:14;6.90;99.90
26081;DHT22;13991;51.174;4.438;2024-02-26T09:07:40;6.80;99.90
26081;DHT22;13991;51.174;4.438;2024-02-26T09:10:06;6.80;99.90
26081;DHT22;13991;51.174;4.438;2024-02-26T09:12:38;6.80;99.90
26081;DHT22;13991;51.174;4.438;2024-02-26T09:15:06;6.80;99.90
26081;DHT22;13991;51.174;4.438;2024-02-26T09:17:31;6.80;99.90
26081;DHT22;13991;51.174;4.438;2024-02-26T09:19:57;6.90;99.90
26081;DHT22;13991;51.174;4.438;2024-02-26T09:22:23;6.90;99.90
26081;DHT22;13991;51.174;4.438;2024-02-26T09:24:48;6.90;99.90
26081;DHT22;13991;51.174;4.438;2024-02-26T09:27:16;6.90;99.90
26081;DHT22;13991;51.174;4.438;2024-02-26T09:29:42;6.90;99.90
26081;DHT22;13991;51.174;4.438;2024-02-26T09:32:08;6.90;99.90
26081;DHT22;13991;51.174;4.438;2024-02-26T09:34:34;7.10;99.90
26081;DHT22;13991;51.174;4.438;2024-02-26T09:37:00;7.10;99.90
26081;DHT22;13991;51.174;4.438;2024-02-26T09:39:26;6.90;99.90
26081;DHT22;13991;51.174;4.438;2024-02-26T09:41:53;6.90;99.90
26081;DHT22;13991;51.174;4.438;2024-02-26T09:44:19;6.90;99.90
26081;DHT22;13991;51.174;4.438;2024-02-26T09:46:48;7.00;99.90
26081;DHT22;13991;51.174;4.438;2024-02-26T09:49:18;7.00;99.90
26081;DHT22;13991;51.174;4.438;2024-02-26T09:51:45;6.90;99.90
26081;DHT22;13991;51.174;4.438;2024-02-26T09:54:13;6.90;99.90
26081;DHT22;13991;51.174;4.438;2024-02-26T09:56:40;7.10;99.90
26081;DHT22;13991;51.174;4.438;2024-02-26T09:59:16;7.00;99.90
26081;DHT22;13991;51.174;4.438;2024-02-26T10:01:42;7.00;99.90
26081;DHT22;13991;51.174;4.438;2024-02-26T10:04:10;7.10;99.90
26081;DHT22;13991;51.174;4.438;2024-02-26T10:06:37;7.00;99.90
26081;DHT22;13991;51.174;4.438;2024-02-26T10:09:03;6.90;99.90
26081;DHT22;13991;51.174;4.438;2024-02-26T10:11:32;7.00;99.90
26081;DHT22;13991;51.174;4.438;2024-02-26T10:13:58;7.00;99.90
26081;DHT22;13991;51.174;4.438;2024-02-26T10:16:25;7.00;99.90
26081;DHT22;13991;51.174;4.438;2024-02-26T10:18:52;6.90;99.90
26081;DHT22;13991;51.174;4.438;2024-02-26T10:21:20;7.10;99.90
26081;DHT22;13991;51.174;4.438;2024-02-26T10:23:46;7.00;99.90
26081;DHT22;13991;51.174;4.438;2024-02-26T10:26:13;7.00;99.90
26081;DHT22;13991;51.174;4.438;2024-02-26T10:28:42;7.10;99.90
26081;DHT22;13991;51.174;4.438;2024-02-26T10:31:09;7.00;99.90
26081;DHT22;13991;51.174;4.438;2024-02-26T10:33:35;7.00;99.90
26081;DHT22;13991;51.174;4.438;2024-02-26T10:36:05;7.10;99.90
26081;DHT22;13991;51.174;4.438;2024-02-26T10:38:32;7.10;99.90
26081;DHT22;13991;51.174;4.438;2024-02-26T10:40:58;7.10;99.90
26081;DHT22;13991;51.174;4.438;2024-02-26T10:43:25;7.30;99.90
26081;DHT22;13991;51.174;4.438;2024-02-26T10:45:51;7.30;99.90
26081;DHT22;13991;51.174;4.438;2024-02-26T10:48:17;7.10;99.90
26081;DHT22;13991;51.174;4.438;2024-02-26T10:50:44;7.00;99.90
26081;DHT22;13991;51.174;4.438;2024-02-26T10:53:21;7.00;99.90
26081;DHT22;13991;51.174;4.438;2024-02-26T10:55:52;7.00;99.90
26081;DHT22;13991;51.174;4.438;2024-02-26T10:58:21;6.80;99.90
26081;DHT22;13991;51.174;4.438;2024-02-26T11:00:48;6.90;99.90
26081;DHT22;13991;51.174;4.438;2024-02-26T11:03:15;6.80;99.90
26081;DHT22;13991;51.174;4.438;2024-02-26T11:05:48;6.90;99.90
26081;DHT22;13991;51.174;4.438;2024-02-26T11:08:14;6.90;99.90
26081;DHT22;13991;51.174;4.438;2024-02-26T11:10:41;7.00;99.90
26081;DHT22;13991;51.174;4.438;2024-02-26T11:13:09;7.10;99.90
26081;DHT22;13991;51.174;4.438;2024-02-26T11:15:37;7.20;99.90
26081;DHT22;13991;51.174;4.438;2024-02-26T11:18:05;7.10;99.90
26081;DHT22;13991;51.174;4.438;2024-02-26T11:20:32;7.10;99.90
26081;DHT22;13991;51.174;4.438;2024-02-26T11:22:59;7.10;99.90
26081;DHT22;13991;51.174;4.438;2024-02-26T11:25:24;7.00;99.90
26081;DHT22;13991;51.174;4.438;2024-02-26T11:28:00;7.10;99.90
26081;DHT22;13991;51.174;4.438;2024-02-26T11:30:30;7.20;99.90
26081;DHT22;13991;51.174;4.438;2024-02-26T11:32:56;7.10;99.90
26081;DHT22;13991;51.174;4.438;2024-02-26T11:35:23;7.20;99.90
26081;DHT22;13991;51.174;4.438;2024-02-26T11:37:56;7.00;99.90
26081;DHT22;13991;51.174;4.438;2024-02-26T11:40:25;7.00;99.90
26081;DHT22;13991;51.174;4.438;2024-02-26T11:42:51;7.00;99.90
26081;DHT22;13991;51.174;4.438;2024-02-26T11:48:12;7.10;99.90
26081;DHT22;13991;51.174;4.438;2024-02-26T11:50:43;7.10;99.90
26081;DHT22;13991;51.174;4.438;2024-02-26T11:53:30;7.00;99.90
26081;DHT22;13991;51.174;4.438;2024-02-26T11:58:47;6.90;99.90
26081;DHT22;13991;51.174;4.438;2024-02-26T12:01:38;6.80;99.90
26081;DHT22;13991;51.174;4.438;2024-02-26T12:04:05;6.70;99.90
26081;DHT22;13991;51.174;4.438;2024-02-26T12:06:39;6.80;99.90
26081;DHT22;13991;51.174;4.438;2024-02-26T12:09:05;6.70;99.90
26081;DHT22;13991;51.174;4.438;2024-02-26T12:11:31;6.80;99.90
26081;DHT22;13991;51.174;4.438;2024-02-26T12:13:56;6.80;99.90
26081;DHT22;13991;51.174;4.438;2024-02-26T12:16:38;6.90;99.90
26081;DHT22;13991;51.174;4.438;2024-02-26T12:19:09;6.90;99.90
26081;DHT22;13991;51.174;4.438;2024-02-26T12:21:38;7.00;99.90
26081;DHT22;13991;51.174;4.438;2024-02-26T12:24:10;7.00;99.90
26081;DHT22;13991;51.174;4.438;2024-02-26T12:26:37;6.90;99.90
26081;DHT22;13991;51.174;4.438;2024-02-26T12:29:03;6.90;99.90
26081;DHT22;13991;51.174;4.438;2024-02-26T12:31:29;7.00;99.90
26081;DHT22;13991;51.174;4.438;2024-02-26T12:33:56;7.00;99.90
26081;DHT22;13991;51.174;4.438;2024-02-26T12:36:22;7.00;99.90
26081;DHT22;13991;51.174;4.438;2024-02-26T12:38:50;6.90;99.90
26081;DHT22;13991;51.174;4.438;2024-02-26T12:41:16;7.00;99.90
26081;DHT22;13991;51.174;4.438;2024-02-26T12:43:42;7.10;99.90
26081;DHT22;13991;51.174;4.438;2024-02-26T12:46:08;7.20;99.90
26081;DHT22;13991;51.174;4.438;2024-02-26T12:48:34;7.20;99.90
26081;DHT22;13991;51.174;4.438;2024-02-26T12:51:00;7.20;99.90
26081;DHT22;13991;51.174;4.438;2024-02-26T12:53:30;7.00;99.90
26081;DHT22;13991;51.174;4.438;2024-02-26T12:55:57;7.00;99.90
26081;DHT22;13991;51.174;4.438;2024-02-26T12:58:23;7.00;99.90
26081;DHT22;13991;51.174;4.438;2024-02-26T13:00:54;7.00;99.90
26081;DHT22;13991;51.174;4.438;2024-02-26T13:03:20;7.00;99.90
26081;DHT22;13991;51.174;4.438;2024-02-26T13:05:46;7.00;99.90
26081;DHT22;13991;51.174;4.438;2024-02-26T13:08:19;6.90;99.90
26081;DHT22;13991;51.174;4.438;2024-02-26T13:10:46;7.00;99.90
26081;DHT22;13991;51.174;4.438;2024-02-26T13:13:14;6.90;99.90
26081;DHT22;13991;51.174;4.438;2024-02-26T13:15:41;6.90;99.90
26081;DHT22;13991;51.174;4.438;2024-02-26T13:18:11;6.90;99.90
26081;DHT22;13991;51.174;4.438;2024-02-26T13:20:37;6.90;99.90
26081;DHT22;13991;51.174;4.438;2024-02-26T13:23:07;7.00;99.90
26081;DHT22;13991;51.174;4.438;2024-02-26T13:25:33;7.00;99.90
26081;DHT22;13991;51.174;4.438;2024-02-26T13:28:08;7.00;99.90
26081;DHT22;13991;51.174;4.438;2024-02-26T13:30:34;6.90;99.90
26081;DHT22;13991;51.174;4.438;2024-02-26T13:33:08;7.00;99.90
26081;DHT22;13991;51.174;4.438;2024-02-26T13:35:34;7.00;99.90
26081;DHT22;13991;51.174;4.438;2024-02-26T13:38:00;7.00;99.90
26081;DHT22;13991;51.174;4.438;2024-02-26T13:40:26;7.00;99.90
26081;DHT22;13991;51.174;4.438;2024-02-26T13:42:51;6.90;99.90
26081;DHT22;13991;51.174;4.438;2024-02-26T13:45:18;7.00;99.90
26081;DHT22;13991;51.174;4.438;2024-02-26T13:47:44;7.00;99.90
26081;DHT22;13991;51.174;4.438;2024-02-26T13:50:10;7.10;99.90
26081;DHT22;13991;51.174;4.438;2024-02-26T13:52:35;7.10;99.90
26081;DHT22;13991;51.174;4.438;2024-02-26T13:55:01;7.10;99.90
26081;DHT22;13991;51.174;4.438;2024-02-26T13:57:28;6.90;99.90
26081;DHT22;13991;51.174;4.438;2024-02-26T13:59:54;6.90;99.90
26081;DHT22;13991;51.174;4.438;2024-02-26T14:02:20;6.90;99.90
26081;DHT22;13991;51.174;4.438;2024-02-26T14:04:46;6.80;99.90
26081;DHT22;13991;51.174;4.438;2024-02-26T14:07:13;6.90;99.90
26081;DHT22;13991;51.174;4.438;2024-02-26T14:09:38;6.90;99.90
26081;DHT22;13991;51.174;4.438;2024-02-26T14:12:04;6.90;99.90
26081;DHT22;13991;51.174;4.438;2024-02-26T14:14:30;7.00;99.90
26081;DHT22;13991;51.174;4.438;2024-02-26T14:16:59;7.10;99.90
26081;DHT22;13991;51.174;4.438;2024-02-26T14:19:25;7.20;99.90
26081;DHT22;13991;51.174;4.438;2024-02-26T14:21:51;7.20;99.90
26081;DHT22;13991;51.174;4.438;2024-02-26T14:24:17;7.30;99.90
26081;DHT22;13991;51.174;4.438;2024-02-26T14:26:42;7.30;99.90
26081;DHT22;13991;51.174;4.438;2024-02-26T14:29:08;7.20;99.90
26081;DHT22;13991;51.174;4.438;2024-02-26T14:31:33;7.30;99.90
26081;DHT22;13991;51.174;4.438;2024-02-26T14:33:59;7.40;99.90
26081;DHT22;13991;51.174;4.438;2024-02-26T14:36:25;7.40;99.90
26081;DHT22;13991;51.174;4.438;2024-02-26T14:38:51;7.30;99.90
26081;DHT22;13991;51.174;4.438;2024-02-26T14:41:17;7.40;99.90
26081;DHT22;13991;51.174;4.438;2024-02-26T14:43:42;7.40;99.90
26081;DHT22;13991;51.174;4.438;2024-02-26T14:46:08;7.30;99.90
26081;DHT22;13991;51.174;4.438;2024-02-26T14:48:33;7.20;99.90
26081;DHT22;13991;51.174;4.438;2024-02-26T14:50:59;7.10;99.90
26081;DHT22;13991;51.174;4.438;2024-02-26T14:53:26;7.20;99.90
26081;DHT22;13991;51.174;4.438;2024-02-26T14:55:52;7.20;99.90
26081;DHT22;13991;51.174;4.438;2024-02-26T14:58:17;7.20;99.90
26081;DHT22;13991;51.174;4.438;2024-02-26T15:00:43;7.20;99.90
26081;DHT22;13991;51.174;4.438;2024-02-26T15:03:09;7.20;99.90
26081;DHT22;13991;51.174;4.438;2024-02-26T15:05:35;7.20;99.90
26081;DHT22;13991;51.174;4.438;2024-02-26T15:08:01;7.30;99.90
26081;DHT22;13991;51.174;4.438;2024-02-26T15:10:28;7.30;99.90
26081;DHT22;13991;51.174;4.438;2024-02-26T15:12:54;7.10;99.90
26081;DHT22;13991;51.174;4.438;2024-02-26T15:15:24;7.20;99.90
26081;DHT22;13991;51.174;4.438;2024-02-26T15:17:49;7.10;99.90
26081;DHT22;13991;51.174;4.438;2024-02-26T15:20:16;7.20;99.90
26081;DHT22;13991;51.174;4.438;2024-02-26T15:22:42;7.20;99.90
26081;DHT22;13991;51.174;4.438;2024-02-26T15:25:08;7.30;99.90
26081;DHT22;13991;51.174;4.438;2024-02-26T15:27:34;7.30;99.90
26081;DHT22;13991;51.174;4.438;2024-02-26T15:30:00;7.30;99.90
26081;DHT22;13991;51.174;4.438;2024-02-26T15:32:26;7.30;99.90
26081;DHT22;13991;51.174;4.438;2024-02-26T15:34:53;7.20;99.90
26081;DHT22;13991;51.174;4.438;2024-02-26T15:37:19;7.10;99.90
26081;DHT22;13991;51.174;4.438;2024-02-26T15:39:45;7.20;99.90
26081;DHT22;13991;51.174;4.438;2024-02-26T15:42:11;7.30;99.90
26081;DHT22;13991;51.174;4.438;2024-02-26T15:44:40;7.40;99.90
26081;DHT22;13991;51.174;4.438;2024-02-26T15:47:07;7.40;99.90